createdAt,value
2018-03-03T00:01:19.721Z,96719.88
2018-03-03T00:03:47.359Z,96712.67
2018-03-03T00:06:14.851Z,96713.80
2018-03-03T00:08:42.399Z,96699.16
2018-03-03T00:11:10.032Z,96701.84
2018-03-03T00:13:37.557Z,96700.28
2018-03-03T00:16:05.062Z,96697.64
2018-03-03T00:18:32.621Z,96689.98
2018-03-03T00:21:00.180Z,96688.03
2018-03-03T00:23:27.704Z,96683.16
2018-03-03T00:25:55.210Z,96680.20
2018-03-03T00:28:22.717Z,96667.91
2018-03-03T00:30:50.207Z,96676.35
2018-03-03T00:33:17.715Z,96684.61
2018-03-03T00:35:45.216Z,96689.77
2018-03-03T00:38:12.747Z,96689.73
2018-03-03T00:40:40.240Z,96692.42
2018-03-03T00:43:07.814Z,96693.91
2018-03-03T00:45:35.447Z,96687.89
2018-03-03T00:48:02.964Z,96686.48
2018-03-03T00:50:30.463Z,96686.52
2018-03-03T00:52:57.963Z,96676.02
2018-03-03T00:55:25.498Z,96672.98
2018-03-03T00:57:53.017Z,96673.00
2018-03-03T01:00:20.538Z,96659.53
2018-03-03T01:02:48.055Z,96658.40
2018-03-03T01:05:15.571Z,96654.44
2018-03-03T01:07:43.108Z,96654.01
2018-03-03T01:10:10.637Z,96659.17
2018-03-03T01:12:38.143Z,96653.50
2018-03-03T01:15:05.679Z,96650.81
2018-03-03T01:17:33.345Z,96641.41
2018-03-03T01:20:00.898Z,96654.62
2018-03-03T01:22:28.400Z,96647.64
2018-03-03T01:24:56.086Z,96638.71
2018-03-03T01:27:23.580Z,96634.71
2018-03-03T01:29:51.095Z,96635.19
2018-03-03T01:32:18.623Z,96631.67
2018-03-03T01:34:46.155Z,96621.22
2018-03-03T01:37:13.651Z,96627.67
2018-03-03T01:39:41.174Z,96630.30
2018-03-03T01:42:08.667Z,96625.20
2018-03-03T01:44:36.215Z,96618.03
2018-03-03T01:47:03.727Z,96616.90
2018-03-03T01:49:31.308Z,96611.53
2018-03-03T01:51:58.867Z,96616.94
2018-03-03T01:54:26.395Z,96604.69
2018-03-03T01:56:53.887Z,96605.90
2018-03-03T01:59:21.437Z,96603.97
2018-03-03T02:01:48.948Z,96607.29
2018-03-03T02:04:16.564Z,96606.66
2018-03-03T02:06:44.063Z,96605.22
2018-03-03T02:09:11.581Z,96604.13
2018-03-03T02:11:39.108Z,96607.55
2018-03-03T02:14:06.712Z,96607.66
2018-03-03T02:16:34.388Z,96607.39
2018-03-03T02:19:01.886Z,96603.45
2018-03-03T02:21:29.476Z,96600.84
2018-03-03T02:23:56.972Z,96595.52
2018-03-03T02:26:24.610Z,96595.38
2018-03-03T02:28:52.167Z,96590.80
2018-03-03T02:31:19.689Z,96579.27
2018-03-03T02:33:47.195Z,96578.11
2018-03-03T02:36:14.725Z,96574.59
2018-03-03T02:38:42.277Z,96574.53
2018-03-03T02:41:09.799Z,96561.58
2018-03-03T02:43:37.332Z,96562.35
2018-03-03T02:46:04.884Z,96554.33
2018-03-03T02:48:32.388Z,96543.19
2018-03-03T02:50:59.923Z,96534.35
2018-03-03T02:53:27.451Z,96525.11
2018-03-03T02:55:54.971Z,96518.17
2018-03-03T02:58:22.473Z,96512.77
2018-03-03T03:00:49.997Z,96518.61
2018-03-03T03:03:17.521Z,96520.88
2018-03-03T03:05:45.016Z,96522.34
2018-03-03T03:08:12.599Z,96515.56
2018-03-03T03:10:40.167Z,96516.14
2018-03-03T03:13:07.690Z,96518.73
2018-03-03T03:15:35.285Z,96519.98
2018-03-03T03:18:02.866Z,96522.63
2018-03-03T03:20:30.381Z,96528.36
2018-03-03T03:22:57.900Z,96525.16
2018-03-03T03:25:25.651Z,96524.40
2018-03-03T03:27:53.191Z,96525.18
2018-03-03T03:30:20.688Z,96522.17
2018-03-03T03:32:48.223Z,96512.38
2018-03-03T03:35:15.752Z,96511.61
2018-03-03T03:37:43.267Z,96505.06
2018-03-03T03:40:10.780Z,96513.02
2018-03-03T03:42:38.335Z,96513.79
2018-03-03T03:45:05.828Z,96512.54
2018-03-03T03:47:33.455Z,96505.66
2018-03-03T03:50:01.053Z,96498.42
2018-03-03T03:52:28.805Z,96492.58
2018-03-03T03:54:56.347Z,96492.00
2018-03-03T03:57:23.906Z,96486.64
2018-03-03T03:59:51.399Z,96482.85
2018-03-03T04:02:19.027Z,96474.19
2018-03-03T04:04:46.584Z,96469.51
2018-03-03T04:07:14.146Z,96456.80
2018-03-03T04:09:41.644Z,96458.11
2018-03-03T04:12:09.145Z,96462.78
2018-03-03T04:14:36.668Z,96456.52
2018-03-03T04:17:04.180Z,96448.66
2018-03-03T04:19:31.731Z,96452.34
2018-03-03T04:21:59.235Z,96458.55
2018-03-03T04:24:26.762Z,96451.80
2018-03-03T04:26:54.265Z,96461.72
2018-03-03T04:29:21.788Z,96453.88
2018-03-03T04:31:49.325Z,96448.99
2018-03-03T04:34:16.844Z,96455.68
2018-03-03T04:36:44.356Z,96461.06
2018-03-03T04:39:11.910Z,96464.70
2018-03-03T04:41:39.398Z,96454.66
2018-03-03T04:44:06.916Z,96454.05
2018-03-03T04:46:34.459Z,96452.64
2018-03-03T04:49:01.981Z,96462.84
2018-03-03T04:51:29.487Z,96470.83
2018-03-03T04:53:57.004Z,96469.30
2018-03-03T04:56:24.499Z,96469.52
2018-03-03T04:58:56.040Z,96469.04
2018-03-03T05:01:24.106Z,96461.47
2018-03-03T05:03:53.568Z,96457.66
2018-03-03T05:06:21.087Z,96467.79
2018-03-03T05:08:48.603Z,96469.81
2018-03-03T05:11:16.111Z,96475.60
2018-03-03T05:13:43.627Z,96469.67
2018-03-03T05:16:27.083Z,96481.16
2018-03-03T05:19:00.152Z,96477.02
2018-03-03T05:21:33.312Z,96481.92
2018-03-03T05:24:06.496Z,96479.80
2018-03-03T05:26:39.695Z,96481.98
2018-03-03T05:29:13.004Z,96478.62
2018-03-03T05:31:46.199Z,96476.75
2018-03-03T05:34:19.425Z,96473.74
2018-03-03T05:39:58.620Z,96455.00
2018-03-03T05:45:47.764Z,96432.40
2018-03-03T05:51:34.998Z,96433.25
2018-03-03T05:54:09.128Z,96436.88
2018-03-03T05:56:51.359Z,96433.03
2018-03-03T05:59:24.610Z,96444.98
2018-03-03T06:05:00.251Z,96432.16
2018-03-03T06:07:31.699Z,96433.00
2018-03-03T06:09:59.223Z,96430.08
2018-03-03T06:12:26.739Z,96437.70
2018-03-03T06:14:54.247Z,96431.72
2018-03-03T06:17:21.765Z,96427.98
2018-03-03T06:19:49.262Z,96425.21
2018-03-03T06:22:16.789Z,96426.84
2018-03-03T06:24:44.303Z,96422.59
2018-03-03T06:27:11.840Z,96432.02
2018-03-03T06:29:39.336Z,96424.49
2018-03-03T06:32:06.853Z,96419.31
2018-03-03T06:34:34.343Z,96419.36
2018-03-03T06:37:01.866Z,96429.72
2018-03-03T06:39:29.363Z,96420.60
2018-03-03T06:41:56.897Z,96420.09
2018-03-03T06:44:24.454Z,96418.59
2018-03-03T06:46:52.003Z,96421.20
2018-03-03T06:49:19.494Z,96432.05
2018-03-03T06:51:47.019Z,96436.17
2018-03-03T06:54:14.608Z,96422.81
2018-03-03T06:56:42.136Z,96428.11
2018-03-03T06:59:09.652Z,96423.66
2018-03-03T07:01:37.204Z,96428.25
2018-03-03T07:04:05.770Z,96420.23
2018-03-03T07:06:33.294Z,96422.12
2018-03-03T07:09:00.867Z,96418.75
2018-03-03T07:11:28.383Z,96410.92
2018-03-03T07:13:55.876Z,96417.14
2018-03-03T07:16:23.403Z,96409.91
2018-03-03T07:18:50.902Z,96410.00
2018-03-03T07:21:18.459Z,96414.21
2018-03-03T07:23:45.950Z,96408.76
2018-03-03T07:26:13.477Z,96412.59
2018-03-03T07:28:41.026Z,96413.64
2018-03-03T07:31:08.611Z,96410.97
2018-03-03T07:33:36.164Z,96411.33
2018-03-03T07:36:03.673Z,96410.77
2018-03-03T07:38:31.191Z,96420.81
2018-03-03T07:40:58.703Z,96425.42
2018-03-03T07:43:26.216Z,96419.84
2018-03-03T07:45:53.715Z,96413.85
2018-03-03T07:48:21.232Z,96408.73
2018-03-03T07:50:48.731Z,96390.98
2018-03-03T07:53:16.246Z,96385.91
2018-03-03T07:55:43.759Z,96374.66
2018-03-03T07:58:11.276Z,96380.66
2018-03-03T08:00:38.800Z,96396.56
2018-03-03T08:03:06.347Z,96397.47
2018-03-03T08:05:33.833Z,96386.36
2018-03-03T08:08:01.350Z,96372.61
2018-03-03T08:10:28.863Z,96353.61
2018-03-03T08:12:56.403Z,96345.59
2018-03-03T08:15:23.928Z,96354.70
2018-03-03T08:17:51.449Z,96374.41
2018-03-03T08:20:18.956Z,96369.66
2018-03-03T08:22:46.491Z,96363.61
2018-03-03T08:25:13.987Z,96360.83
2018-03-03T08:27:41.547Z,96371.50
2018-03-03T08:30:09.070Z,96380.17
2018-03-03T08:32:36.620Z,96381.23
2018-03-03T08:35:04.116Z,96374.84
2018-03-03T08:37:31.648Z,96379.41
2018-03-03T08:39:59.168Z,96382.68
2018-03-03T08:42:26.748Z,96385.06
2018-03-03T08:44:54.415Z,96393.13
2018-03-03T08:47:22.021Z,96391.53
2018-03-03T08:49:49.601Z,96393.42
2018-03-03T08:52:17.097Z,96383.88
2018-03-03T08:54:44.616Z,96380.96
2018-03-03T08:57:12.120Z,96382.58
2018-03-03T08:59:39.691Z,96384.09
2018-03-03T09:02:07.208Z,96379.73
2018-03-03T09:04:34.791Z,96372.09
2018-03-03T09:07:02.307Z,96369.44
2018-03-03T09:09:29.827Z,96370.91
2018-03-03T09:11:57.329Z,96373.32
2018-03-03T09:14:24.843Z,96380.53
2018-03-03T09:16:52.368Z,96375.89
2018-03-03T09:19:19.960Z,96375.21
2018-03-03T09:21:47.464Z,96365.94
2018-03-03T09:24:14.979Z,96364.73
2018-03-03T09:26:42.576Z,96355.13
2018-03-03T09:29:10.092Z,96356.29
2018-03-03T09:31:37.692Z,96358.16
2018-03-03T09:34:05.228Z,96353.49
2018-03-03T09:36:32.721Z,96353.81
2018-03-03T09:39:00.275Z,96364.03
2018-03-03T09:41:27.763Z,96365.67
2018-03-03T09:43:55.284Z,96373.30
2018-03-03T09:46:22.795Z,96373.05
2018-03-03T09:48:50.290Z,96373.67
2018-03-03T09:51:17.828Z,96375.86
2018-03-03T09:53:45.316Z,96368.25
2018-03-03T09:56:12.879Z,96364.86
2018-03-03T09:58:40.432Z,96360.15
2018-03-03T10:01:07.980Z,96367.58
2018-03-03T10:03:35.552Z,96370.59
2018-03-03T10:06:03.560Z,96373.89
2018-03-03T10:08:31.155Z,96378.48
2018-03-03T10:10:58.784Z,96382.44
2018-03-03T10:13:26.341Z,96385.34
2018-03-03T10:15:54.012Z,96382.95
2018-03-03T10:18:21.507Z,96391.30
2018-03-03T10:20:49.097Z,96397.83
2018-03-03T10:23:16.612Z,96395.11
2018-03-03T10:25:44.145Z,96395.37
2018-03-03T10:28:11.678Z,96404.90
2018-03-03T10:30:39.228Z,96417.08
2018-03-03T10:33:06.796Z,96420.30
2018-03-03T10:35:34.329Z,96429.16
2018-03-03T10:38:01.836Z,96434.41
2018-03-03T10:40:29.360Z,96446.02
2018-03-03T10:42:56.843Z,96447.52
2018-03-03T10:45:24.398Z,96440.33
2018-03-03T10:47:52.060Z,96452.28
2018-03-03T10:50:19.573Z,96457.66
2018-03-03T10:52:47.089Z,96451.03
2018-03-03T10:55:14.604Z,96459.81
2018-03-03T10:57:42.128Z,96458.61
2018-03-03T11:00:09.617Z,96462.58
2018-03-03T11:02:37.136Z,96466.96
2018-03-03T11:05:04.636Z,96463.42
2018-03-03T11:07:32.168Z,96468.94
2018-03-03T11:09:59.671Z,96477.99
2018-03-03T11:12:27.332Z,96482.55
2018-03-03T11:14:54.828Z,96492.89
2018-03-03T11:17:22.379Z,96499.00
2018-03-03T11:19:49.911Z,96497.03
2018-03-03T11:22:17.461Z,96502.41
2018-03-03T11:24:45.031Z,96507.22
2018-03-03T11:27:12.544Z,96511.53
2018-03-03T11:29:40.169Z,96505.84
2018-03-03T11:32:07.684Z,96508.63
2018-03-03T11:34:35.364Z,96507.47
2018-03-03T11:37:02.946Z,96503.98
2018-03-03T11:39:30.441Z,96505.98
2018-03-03T11:41:57.953Z,96505.91
2018-03-03T11:44:25.509Z,96501.30
2018-03-03T11:46:53.040Z,96506.45
2018-03-03T11:49:20.653Z,96504.52
2018-03-03T11:51:48.180Z,96516.14
2018-03-03T11:54:15.664Z,96516.30
2018-03-03T11:56:43.156Z,96512.47
2018-03-03T11:59:10.716Z,96511.36
2018-03-03T12:01:38.231Z,96512.10
2018-03-03T12:04:06.791Z,96510.70
2018-03-03T12:06:34.389Z,96509.40
2018-03-03T12:09:01.928Z,96516.30
2018-03-03T12:11:29.424Z,96516.31
2018-03-03T12:13:57.055Z,96522.15
2018-03-03T12:16:24.716Z,96523.62
2018-03-03T12:18:52.269Z,96526.39
2018-03-03T12:21:19.776Z,96525.37
2018-03-03T12:23:47.292Z,96531.63
2018-03-03T12:26:14.789Z,96528.35
2018-03-03T12:28:42.318Z,96526.92
2018-03-03T12:31:09.808Z,96533.00
2018-03-03T12:33:37.320Z,96536.28
2018-03-03T12:36:04.885Z,96545.34
2018-03-03T12:38:32.448Z,96541.79
2018-03-03T12:40:59.948Z,96535.67
2018-03-03T12:43:27.470Z,96538.09
2018-03-03T12:45:55.135Z,96544.22
2018-03-03T12:48:22.686Z,96545.47
2018-03-03T12:50:50.208Z,96543.95
2018-03-03T12:53:17.718Z,96550.50
2018-03-03T12:55:45.275Z,96568.34
2018-03-03T12:58:12.984Z,96576.92
2018-03-03T13:00:42.936Z,96584.38
2018-03-03T13:03:10.491Z,96589.88
2018-03-03T13:05:38.046Z,96595.12
2018-03-03T13:08:05.596Z,96589.23
2018-03-03T13:10:33.086Z,96594.87
2018-03-03T13:13:00.599Z,96599.58
2018-03-03T13:15:28.084Z,96603.46
2018-03-03T13:17:55.604Z,96604.03
2018-03-03T13:20:23.118Z,96606.89
2018-03-03T13:22:50.767Z,96601.92
2018-03-03T13:25:18.263Z,96602.17
2018-03-03T13:27:45.784Z,96595.61
2018-03-03T13:30:13.348Z,96597.69
2018-03-03T13:32:40.844Z,96604.88
2018-03-03T13:35:08.369Z,96605.78
2018-03-03T13:37:35.859Z,96609.19
2018-03-03T13:40:03.389Z,96602.02
2018-03-03T13:42:31.651Z,96599.48
2018-03-03T13:44:59.221Z,96607.05
2018-03-03T13:47:26.720Z,96605.91
2018-03-03T13:49:54.235Z,96612.67
2018-03-03T13:52:21.740Z,96609.94
2018-03-03T13:54:49.267Z,96610.31
2018-03-03T13:57:16.891Z,96617.84
2018-03-03T13:59:44.466Z,96622.95
2018-03-03T14:02:11.999Z,96628.84
2018-03-03T14:04:39.519Z,96630.74
2018-03-03T14:07:07.066Z,96629.97
2018-03-03T14:09:34.597Z,96630.06
2018-03-03T14:12:02.083Z,96638.78
2018-03-03T14:14:30.303Z,96645.21
2018-03-03T14:16:57.797Z,96658.98
2018-03-03T14:19:25.377Z,96655.26
2018-03-03T14:21:52.834Z,96654.26
2018-03-03T14:24:21.404Z,96657.63
2018-03-03T14:26:48.891Z,96660.70
2018-03-03T14:29:16.471Z,96660.45
2018-03-03T14:31:44.077Z,96656.47
2018-03-03T14:34:11.708Z,96652.30
2018-03-03T14:36:39.314Z,96649.99
2018-03-03T14:39:06.839Z,96652.50
2018-03-03T14:41:34.545Z,96651.11
2018-03-03T14:44:02.060Z,96655.70
2018-03-03T14:46:30.559Z,96659.14
2018-03-03T14:48:58.083Z,96655.22
2018-03-03T14:51:25.586Z,96657.49
2018-03-03T14:53:53.094Z,96660.52
2018-03-03T14:56:20.703Z,96657.35
2018-03-03T14:58:48.348Z,96658.79
2018-03-03T15:01:15.848Z,96659.28
2018-03-03T15:03:43.346Z,96660.84
2018-03-03T15:06:10.868Z,96653.88
2018-03-03T15:08:39.339Z,96655.63
2018-03-03T15:11:06.859Z,96664.98
2018-03-03T15:13:34.461Z,96670.13
2018-03-03T15:16:02.003Z,96668.19
2018-03-03T15:18:29.560Z,96666.41
2018-03-03T15:20:57.079Z,96668.83
2018-03-03T15:23:24.684Z,96665.48
2018-03-03T15:25:52.195Z,96668.19
2018-03-03T15:28:20.084Z,96673.41
2018-03-03T15:30:47.672Z,96679.55
2018-03-03T15:33:15.170Z,96672.77
2018-03-03T15:35:42.689Z,96668.98
2018-03-03T15:38:10.184Z,96670.34
2018-03-03T15:40:37.695Z,96672.80
2018-03-03T15:43:05.199Z,96673.44
2018-03-03T15:45:32.737Z,96678.53
2018-03-03T15:48:00.224Z,96669.48
2018-03-03T15:50:27.732Z,96662.03
2018-03-03T15:52:55.253Z,96663.16
2018-03-03T15:55:22.780Z,96669.02
2018-03-03T15:57:50.307Z,96664.91
2018-03-03T16:00:17.872Z,96670.56
2018-03-03T16:02:45.404Z,96676.30
2018-03-03T16:05:12.926Z,96679.55
2018-03-03T16:07:40.436Z,96674.53
2018-03-03T16:10:07.948Z,96678.58
2018-03-03T16:12:35.471Z,96678.91
2018-03-03T16:15:02.984Z,96684.43
2018-03-03T16:17:30.791Z,96690.20
2018-03-03T16:19:58.310Z,96685.11
2018-03-03T16:22:25.867Z,96691.98
2018-03-03T16:24:53.412Z,96691.75
2018-03-03T16:27:21.081Z,96691.30
2018-03-03T16:29:48.577Z,96689.86
2018-03-03T16:32:16.119Z,96685.41
2018-03-03T16:34:43.728Z,96680.98
2018-03-03T16:37:11.242Z,96679.73
2018-03-03T16:39:38.731Z,96676.91
2018-03-03T16:42:06.276Z,96674.11
2018-03-03T16:44:33.851Z,96677.41
2018-03-03T16:47:01.408Z,96681.78
2018-03-03T16:49:29.004Z,96686.84
2018-03-03T16:51:56.840Z,96689.70
2018-03-03T16:54:24.331Z,96694.13
2018-03-03T16:56:52.760Z,96698.73
2018-03-03T16:59:20.276Z,96705.30
2018-03-03T17:01:47.788Z,96704.96
2018-03-03T17:04:15.348Z,96712.78
2018-03-03T17:06:42.881Z,96713.80
2018-03-03T17:09:10.377Z,96713.53
2018-03-03T17:11:37.892Z,96719.08
2018-03-03T17:14:05.392Z,96726.91
2018-03-03T17:16:32.903Z,96732.53
2018-03-03T17:19:00.401Z,96731.89
2018-03-03T17:21:27.916Z,96738.54
2018-03-03T17:23:55.408Z,96746.92
2018-03-03T17:26:22.927Z,96748.55
2018-03-03T17:28:50.427Z,96767.69
2018-03-03T17:31:17.917Z,96762.27
2018-03-03T17:33:45.452Z,96753.91
2018-03-03T17:36:12.944Z,96758.53
2018-03-03T17:38:40.782Z,96753.14
2018-03-03T17:41:08.386Z,96782.37
2018-03-03T17:43:35.888Z,96779.03
2018-03-03T17:46:03.392Z,96761.06
2018-03-03T17:48:30.908Z,96752.17
2018-03-03T17:50:58.500Z,96770.94
2018-03-03T17:53:26.151Z,96788.97
2018-03-03T17:55:53.656Z,96803.02
2018-03-03T17:58:21.323Z,96796.90
2018-03-03T18:00:48.812Z,96793.78
2018-03-03T18:03:16.332Z,96822.79
2018-03-03T18:05:43.836Z,96812.84
2018-03-03T18:08:11.355Z,96811.05
2018-03-03T18:10:38.854Z,96820.99
2018-03-03T18:13:07.280Z,96827.48
2018-03-03T18:15:34.773Z,96829.84
2018-03-03T18:18:02.283Z,96837.23
2018-03-03T18:20:29.804Z,96833.28
2018-03-03T18:22:57.315Z,96843.06
2018-03-03T18:25:24.811Z,96847.50
2018-03-03T18:27:52.331Z,96842.40
2018-03-03T18:30:19.827Z,96838.63
2018-03-03T18:32:47.355Z,96849.84
2018-03-03T18:35:14.881Z,96849.02
2018-03-03T18:37:42.384Z,96846.72
2018-03-03T18:40:09.901Z,96859.31
2018-03-03T18:42:37.431Z,96874.56
2018-03-03T18:45:04.944Z,96866.81
2018-03-03T18:47:32.436Z,96861.86
2018-03-03T18:49:59.992Z,96867.05
2018-03-03T18:52:27.567Z,96874.05
2018-03-03T18:54:55.079Z,96872.06
2018-03-03T18:57:22.571Z,96872.77
2018-03-03T18:59:50.088Z,96872.33
2018-03-03T19:02:17.726Z,96878.39
2018-03-03T19:04:45.260Z,96877.22
2018-03-03T19:07:12.769Z,96875.63
2018-03-03T19:09:40.337Z,96879.49
2018-03-03T19:12:07.824Z,96874.52
2018-03-03T19:14:35.348Z,96883.17
2018-03-03T19:17:02.849Z,96882.86
2018-03-03T19:19:30.360Z,96879.99
2018-03-03T19:21:57.884Z,96877.58
2018-03-03T19:24:25.425Z,96872.58
2018-03-03T19:26:52.945Z,96886.81
2018-03-03T19:29:20.472Z,96888.22
2018-03-03T19:31:48.020Z,96895.25
2018-03-03T19:34:15.581Z,96889.47
2018-03-03T19:36:43.136Z,96892.36
2018-03-03T19:39:10.721Z,96888.31
2018-03-03T19:41:38.232Z,96888.66
2018-03-03T19:44:05.834Z,96883.69
2018-03-03T19:46:33.320Z,96890.52
2018-03-03T19:49:00.904Z,96882.04
2018-03-03T19:51:28.426Z,96881.98
2018-03-03T19:53:55.926Z,96880.64
2018-03-03T19:56:23.445Z,96887.09
2018-03-03T19:58:50.930Z,96885.58
2018-03-03T20:01:18.453Z,96887.72
2018-03-03T20:03:45.980Z,96887.73
2018-03-03T20:06:13.776Z,96886.69
2018-03-03T20:08:41.268Z,96893.74
2018-03-03T20:11:08.800Z,96895.27
2018-03-03T20:13:36.297Z,96894.13
2018-03-03T20:16:03.811Z,96904.95
2018-03-03T20:18:31.375Z,96899.91
2018-03-03T20:20:58.888Z,96898.39
2018-03-03T20:23:26.380Z,96903.08
2018-03-03T20:25:53.910Z,96913.28
2018-03-03T20:28:21.508Z,96914.59
2018-03-03T20:30:49.254Z,96919.27
2018-03-03T20:33:16.744Z,96927.20
2018-03-03T20:35:44.280Z,96935.23
2018-03-03T20:38:11.860Z,96932.56
2018-03-03T20:40:39.380Z,96935.42
2018-03-03T20:43:06.876Z,96952.77
2018-03-03T20:45:34.368Z,96954.67
2018-03-03T20:48:01.890Z,96962.03
2018-03-03T20:50:29.579Z,96949.14
2018-03-03T20:52:57.151Z,96952.79
2018-03-03T20:55:25.667Z,96944.03
2018-03-03T20:57:53.200Z,96936.26
2018-03-03T21:00:20.736Z,96926.22
2018-03-03T21:02:48.322Z,96921.42
2018-03-03T21:05:15.825Z,96909.86
2018-03-03T21:07:43.387Z,96913.15
2018-03-03T21:10:10.893Z,96906.69
2018-03-03T21:12:50.844Z,96915.27
2018-03-03T21:15:18.392Z,96914.72
2018-03-03T21:17:46.019Z,96915.73
2018-03-03T21:20:13.579Z,96914.96
2018-03-03T21:22:41.136Z,96947.20
2018-03-03T21:25:08.698Z,96955.75
2018-03-03T21:27:36.278Z,96937.47
2018-03-03T21:30:03.796Z,96923.65
2018-03-03T21:32:32.095Z,96918.44
2018-03-03T21:34:59.622Z,96909.86
2018-03-03T21:37:27.220Z,96931.08
2018-03-03T21:39:54.722Z,96904.02
2018-03-03T21:42:22.328Z,96931.33
2018-03-03T21:44:49.831Z,96932.37
2018-03-03T21:47:17.352Z,96928.86
2018-03-03T21:49:44.907Z,96944.04
2018-03-03T21:52:12.423Z,96933.00
2018-03-03T21:54:39.929Z,96932.05
2018-03-03T21:57:07.424Z,96940.80
2018-03-03T21:59:34.936Z,96947.44
2018-03-03T22:02:02.507Z,96947.64
2018-03-03T22:04:30.024Z,96958.00
2018-03-03T22:06:57.520Z,96963.34
2018-03-03T22:09:25.040Z,96962.69
2018-03-03T22:11:52.527Z,96969.84
2018-03-03T22:14:20.048Z,96970.84
2018-03-03T22:16:47.539Z,96969.35
2018-03-03T22:19:15.059Z,96966.40
2018-03-03T22:21:42.566Z,96968.27
2018-03-03T22:24:10.102Z,96969.52
2018-03-03T22:26:37.601Z,96971.49
2018-03-03T22:29:05.120Z,96968.46
2018-03-03T22:31:32.609Z,96977.27
2018-03-03T22:34:00.140Z,96963.61
2018-03-03T22:36:27.704Z,96964.16
2018-03-03T22:38:55.215Z,96972.81
2018-03-03T22:41:22.757Z,96975.53
2018-03-03T22:43:50.279Z,96977.61
2018-03-03T22:46:17.830Z,96979.19
2018-03-03T22:48:45.344Z,96979.98
2018-03-03T22:51:12.971Z,96981.71
2018-03-03T22:53:40.484Z,96991.80
2018-03-03T22:56:08.003Z,96989.13
2018-03-03T22:58:35.540Z,97001.59
2018-03-03T23:01:03.052Z,97005.83
2018-03-03T23:03:30.578Z,97010.89
2018-03-03T23:05:58.190Z,97013.32
2018-03-03T23:08:25.639Z,97014.32
2018-03-03T23:10:53.164Z,97025.84
2018-03-03T23:13:20.651Z,97037.67
2018-03-03T23:15:48.263Z,97037.91
2018-03-03T23:18:15.840Z,97028.13
2018-03-03T23:20:43.361Z,97028.16
2018-03-03T23:23:10.860Z,97029.44
2018-03-03T23:25:38.409Z,97040.38
2018-03-03T23:28:05.976Z,97026.42
2018-03-03T23:30:33.522Z,97023.42
2018-03-03T23:33:01.089Z,97029.69
2018-03-03T23:35:28.628Z,97026.25
2018-03-03T23:37:56.116Z,97030.62
2018-03-03T23:40:23.650Z,97030.52
2018-03-03T23:42:51.164Z,97032.35
2018-03-03T23:45:18.687Z,97033.24
2018-03-03T23:47:46.185Z,97034.47
2018-03-03T23:50:13.723Z,97039.38
2018-03-03T23:52:41.223Z,97048.31
2018-03-03T23:55:08.772Z,97047.91
2018-03-03T23:57:36.275Z,97042.69
